This is the latest recevied weather packets stored in our database for station/object CA4LJZ-10. If no packets are shown the sender has not sent any weather packets the latest 10 day(s).
| Time | Temp. | Humidity | Pressure | Rain* | Wind** | Luminosity | Snow |
|---|---|---|---|---|---|---|---|
| 1777833968 | 31.11° C | 20% | 953.8 hPa | - | - | - | - |
| 1777833067 | 32.22° C | 18% | 953.7 hPa | - | - | - | - |
| 1777832166 | 35° C | 17% | 953.8 hPa | - | - | - | - |
| 1777831265 | 39.44° C | 16% | 954 hPa | - | - | - | - |
| 1777830364 | 43.33° C | 14% | 954.1 hPa | - | - | - | - |
| 1777829463 | 41.11° C | 15% | 954.4 hPa | - | - | - | - |
| 1777828562 | 43.89° C | 13% | 954.5 hPa | - | - | - | - |
| 1777827661 | 43.89° C | 14% | 954.5 hPa | - | - | - | - |
| 1777826759 | 38.89° C | 16% | 954.6 hPa | - | - | - | - |
| 1777825858 | 35.56° C | 17% | 954.6 hPa | - | - | - | - |
| 1777824958 | 46.67° C | 13% | 955.3 hPa | - | - | - | - |
| 1777824057 | 36.67° C | 18% | 955.3 hPa | - | - | - | - |
| 1777823156 | 32.78° C | 22% | 955.3 hPa | - | - | - | - |
| 1777822254 | 42.22° C | 15% | 955.4 hPa | - | - | - | - |
| 1777821354 | 46.67° C | 14% | 955.6 hPa | - | - | - | - |
| 1777820453 | 44.44° C | 14% | 955.5 hPa | - | - | - | - |
| 1777819552 | 43.33° C | 14% | 955.5 hPa | - | - | - | - |
| 1777818657 | 42.78° C | 15% | 955.5 hPa | - | - | - | - |
| 1777817965 | 41.67° C | 16% | 955.8 hPa | - | - | - | - |
| 1777817064 | 39.44° C | 17% | 955.9 hPa | - | - | - | - |
| 1777816163 | 35.56° C | 20% | 955.8 hPa | - | - | - | - |
| 1777815302 | 31.11° C | 22% | 955.5 hPa | - | - | - | - |
| 1777815262 | 31.11° C | 22% | 955.5 hPa | - | - | - | - |
| 1777814399 | 35.56° C | 19% | 955.6 hPa | - | - | - | - |
| 1777814361 | 35.56° C | 19% | 955.6 hPa | - | - | - | - |
* Rain since midnight (hover to see other rain measurements)
** Current wind speed in m/s (hover to see current wind gust speed)